Dod Ballapur, India
Current Conditions -  °F | °C
As of 6:30 PM on Saturday 25 Oct 2014 (Local Time) from VOBL Reporting Station
Thunderstorm Thunderstorm  
Wind Chill: 75°   Ceiling: 8000
Heat Index: 75°   Visibility: 3mi
Dew Point: 75°   Wind: 8mph
Humidity: 100%   Direction: 230°SW
Pressure: 30"   Gusts: NA
Location:  13.29°N, 77.53°E
Report Text: VOBL 251330Z 23007KT 5000 -TSRA SCT010 SCT015 FEW025CB OVC08024/24 Q1016 NOSIG RMK CB OH N S
Loading
Personal Weather Stations






























Interactive Weather Map
Tropical Storm Tracking
New forecast layout! Learn more

10-Day Weather Forecast

Advertisements
Track Severe Weather on mobile